createdAt,value
2023-03-17T00:01:56.323Z,93.62
2023-03-17T00:04:25.713Z,94.42
2023-03-17T00:06:53.795Z,94.54
2023-03-17T00:09:22.639Z,94.24
2023-03-17T00:11:50.853Z,93.52
2023-03-17T00:14:19.967Z,93.56
2023-03-17T00:16:52.861Z,93.68
2023-03-17T00:19:32.369Z,94.41
2023-03-17T00:22:01.419Z,94.67
2023-03-17T00:24:30.010Z,93.42
2023-03-17T00:26:58.092Z,92.17
2023-03-17T00:29:26.885Z,92.40
2023-03-17T00:31:57.060Z,92.43
2023-03-17T00:34:24.632Z,93.62
2023-03-17T00:36:52.292Z,94.00
2023-03-17T00:39:20.754Z,93.94
2023-03-17T00:41:48.415Z,92.46
2023-03-17T00:44:15.842Z,90.95
2023-03-17T00:46:43.405Z,92.00
2023-03-17T00:49:23.523Z,90.48
2023-03-17T00:51:51.916Z,92.25
2023-03-17T00:54:21.323Z,91.19
2023-03-17T00:56:51.138Z,89.65
2023-03-17T00:59:35.468Z,90.66
2023-03-17T01:02:03.029Z,91.38
2023-03-17T01:04:30.620Z,91.71
2023-03-17T01:06:59.353Z,93.17
2023-03-17T01:09:28.168Z,92.80
2023-03-17T01:11:56.170Z,91.47
2023-03-17T01:14:24.827Z,91.74
2023-03-17T01:16:55.499Z,92.75
2023-03-17T01:19:23.795Z,93.26
2023-03-17T01:21:52.333Z,92.71
2023-03-17T01:24:19.990Z,93.59
2023-03-17T01:26:47.500Z,93.66
2023-03-17T01:29:16.507Z,92.76
2023-03-17T01:31:44.260Z,92.24
2023-03-17T01:34:11.773Z,92.68
2023-03-17T01:36:40.664Z,92.09
2023-03-17T01:39:08.783Z,93.04
2023-03-17T01:41:37.730Z,91.52
2023-03-17T01:44:05.718Z,93.06
2023-03-17T01:46:36.290Z,93.51
2023-03-17T01:49:12.767Z,94.38
2023-03-17T01:52:13.222Z,94.59
2023-03-17T01:55:00.789Z,93.60
2023-03-17T01:57:38.104Z,93.19
2023-03-17T02:00:12.521Z,90.00
2023-03-17T02:02:48.744Z,90.48
2023-03-17T02:05:21.314Z,92.06
2023-03-17T02:07:49.378Z,91.24
2023-03-17T02:10:20.696Z,90.45
2023-03-17T02:12:57.770Z,91.46
2023-03-17T02:15:40.380Z,94.28
2023-03-17T02:18:09.499Z,92.65
2023-03-17T02:20:37.547Z,90.22
2023-03-17T02:23:06.723Z,89.88
2023-03-17T02:25:36.949Z,90.97
2023-03-17T02:28:16.299Z,91.36
2023-03-17T02:30:45.063Z,91.50
2023-03-17T02:33:12.889Z,91.58
2023-03-17T02:35:41.510Z,90.53
2023-03-17T02:38:09.175Z,93.33
2023-03-17T02:40:37.104Z,90.79
2023-03-17T02:43:05.783Z,90.65
2023-03-17T02:45:33.285Z,90.74
2023-03-17T02:48:01.456Z,92.22
2023-03-17T02:50:30.451Z,91.24
2023-03-17T02:52:58.596Z,91.46
2023-03-17T02:55:27.147Z,90.25
2023-03-17T02:57:54.580Z,90.10
2023-03-17T03:00:22.561Z,91.36
2023-03-17T03:02:50.090Z,89.49
2023-03-17T03:05:17.660Z,90.32
2023-03-17T03:07:45.179Z,92.65
2023-03-17T03:10:12.735Z,92.58
2023-03-17T03:12:40.330Z,90.82
2023-03-17T03:15:09.773Z,91.33
2023-03-17T03:17:37.527Z,90.98
2023-03-17T03:20:06.429Z,90.64
2023-03-17T03:22:33.978Z,90.62
2023-03-17T03:25:01.417Z,90.07
2023-03-17T03:27:28.860Z,90.68
2023-03-17T03:29:56.489Z,92.75
2023-03-17T03:32:23.965Z,91.39
2023-03-17T03:34:52.139Z,91.74
2023-03-17T03:37:19.632Z,91.47
2023-03-17T03:39:47.812Z,90.04
2023-03-17T03:42:16.371Z,90.28
2023-03-17T03:44:43.801Z,89.45
2023-03-17T03:47:11.554Z,89.81
2023-03-17T03:49:39.323Z,89.76
2023-03-17T03:52:07.039Z,89.37
2023-03-17T03:54:34.568Z,90.27
2023-03-17T03:57:02.623Z,90.32
2023-03-17T03:59:30.565Z,91.84
2023-03-17T04:01:58.018Z,91.96
2023-03-17T04:04:25.549Z,92.14
2023-03-17T04:06:53.056Z,92.66
2023-03-17T04:09:20.672Z,93.27
2023-03-17T04:11:48.086Z,93.59
2023-03-17T04:14:15.594Z,93.81
2023-03-17T04:16:43.693Z,93.33
2023-03-17T04:19:11.316Z,91.86
2023-03-17T04:21:38.769Z,91.96
2023-03-17T04:24:06.853Z,92.91
2023-03-17T04:26:34.295Z,92.32
2023-03-17T04:29:01.725Z,92.45
2023-03-17T04:31:30.735Z,92.51
2023-03-17T04:33:58.245Z,93.10
2023-03-17T04:36:26.091Z,93.54
2023-03-17T04:38:53.551Z,92.08
2023-03-17T04:41:21.410Z,91.62
2023-03-17T04:43:49.015Z,92.00
2023-03-17T04:46:16.705Z,91.99
2023-03-17T04:48:44.245Z,91.99
2023-03-17T04:51:12.183Z,90.79
2023-03-17T04:53:40.083Z,91.47
2023-03-17T04:56:08.000Z,92.11
2023-03-17T04:58:35.870Z,92.73
2023-03-17T05:01:03.846Z,93.01
2023-03-17T05:03:34.462Z,92.92
2023-03-17T05:06:03.944Z,93.44
2023-03-17T05:08:32.337Z,91.84
2023-03-17T05:11:00.098Z,90.02
2023-03-17T05:13:27.980Z,90.00
2023-03-17T05:15:56.813Z,89.63
2023-03-17T05:18:26.361Z,89.65
2023-03-17T05:20:55.678Z,89.69
2023-03-17T05:23:23.578Z,90.24
2023-03-17T05:25:51.383Z,89.29
2023-03-17T05:28:20.889Z,89.77
2023-03-17T05:30:49.502Z,87.83
2023-03-17T05:33:17.989Z,87.34
2023-03-17T05:35:46.518Z,85.12
2023-03-17T05:38:16.037Z,85.44
2023-03-17T05:40:45.858Z,86.33
2023-03-17T05:43:14.086Z,87.11
2023-03-17T05:45:41.598Z,87.79
2023-03-17T05:48:09.359Z,87.33
2023-03-17T05:50:37.247Z,86.92
2023-03-17T05:53:04.720Z,88.00
2023-03-17T05:55:32.190Z,87.84
2023-03-17T05:58:00.922Z,88.84
2023-03-17T06:00:29.306Z,89.64
2023-03-17T06:02:56.919Z,85.84
2023-03-17T06:05:24.854Z,86.67
2023-03-17T06:07:56.283Z,87.58
2023-03-17T06:10:25.504Z,86.90
2023-03-17T06:12:54.272Z,87.32
2023-03-17T06:15:21.992Z,85.84
2023-03-17T06:17:49.478Z,86.91
2023-03-17T06:20:17.744Z,86.43
2023-03-17T06:23:02.297Z,86.72
2023-03-17T06:25:31.798Z,85.29
2023-03-17T06:28:05.583Z,86.77
2023-03-17T06:30:35.218Z,86.55
2023-03-17T06:33:04.462Z,84.06
2023-03-17T06:35:33.412Z,83.78
2023-03-17T06:38:01.405Z,82.06
2023-03-17T06:40:30.618Z,82.08
2023-03-17T06:42:58.250Z,83.46
2023-03-17T06:45:26.028Z,82.79
2023-03-17T06:47:53.826Z,84.69
2023-03-17T06:50:21.694Z,83.19
2023-03-17T06:52:50.352Z,81.86
2023-03-17T06:55:18.371Z,81.91
2023-03-17T06:57:45.887Z,80.68
2023-03-17T07:00:14.450Z,77.37
2023-03-17T07:02:43.127Z,76.80
2023-03-17T07:05:12.694Z,78.51
2023-03-17T07:07:41.191Z,75.71
2023-03-17T07:10:13.801Z,75.64
2023-03-17T07:12:41.512Z,74.52
2023-03-17T07:15:11.158Z,75.44
2023-03-17T07:17:39.017Z,71.20
2023-03-17T07:20:07.591Z,71.63
2023-03-17T07:22:35.411Z,69.64
2023-03-17T07:25:03.813Z,64.32
2023-03-17T07:27:31.400Z,62.94
2023-03-17T07:30:02.260Z,62.76
2023-03-17T07:32:29.884Z,58.74
2023-03-17T07:34:58.280Z,58.04
2023-03-17T07:37:28.440Z,55.83
2023-03-17T07:39:56.171Z,55.97
2023-03-17T07:42:23.813Z,54.19
2023-03-17T07:44:51.396Z,54.77
2023-03-17T07:47:19.444Z,55.02
2023-03-17T07:49:47.503Z,52.69
2023-03-17T07:52:14.996Z,53.21
2023-03-17T07:54:43.238Z,51.33
2023-03-17T07:57:12.028Z,51.50
2023-03-17T07:59:40.085Z,48.93
2023-03-17T08:02:10.535Z,50.81
2023-03-17T08:04:38.646Z,49.67
2023-03-17T08:07:06.334Z,50.03
2023-03-17T08:09:34.003Z,49.25
2023-03-17T08:12:01.598Z,50.17
2023-03-17T08:14:29.259Z,50.02
2023-03-17T08:16:57.414Z,51.06
2023-03-17T08:19:25.295Z,51.08
2023-03-17T08:21:52.806Z,50.61
2023-03-17T08:24:22.402Z,51.42
2023-03-17T08:26:50.652Z,48.58
2023-03-17T08:29:19.073Z,46.68
2023-03-17T08:31:46.948Z,46.01
2023-03-17T08:34:16.215Z,45.10
2023-03-17T08:36:45.016Z,45.08
2023-03-17T08:39:12.564Z,45.19
2023-03-17T08:41:41.781Z,44.64
2023-03-17T08:44:09.436Z,45.34
2023-03-17T08:46:37.961Z,45.05
2023-03-17T08:49:05.481Z,45.53
2023-03-17T08:51:37.931Z,45.94
2023-03-17T08:54:06.933Z,45.29
2023-03-17T08:56:37.165Z,45.84
2023-03-17T08:59:07.751Z,45.51
2023-03-17T09:01:35.980Z,44.39
2023-03-17T09:04:04.138Z,46.79
2023-03-17T09:06:34.215Z,45.80
2023-03-17T09:09:01.740Z,44.47
2023-03-17T09:11:32.833Z,45.52
2023-03-17T09:14:00.393Z,45.86
2023-03-17T09:16:28.915Z,44.22
2023-03-17T09:18:56.539Z,43.17
2023-03-17T09:21:24.061Z,41.26
2023-03-17T09:23:51.547Z,43.05
2023-03-17T09:26:20.189Z,41.44
2023-03-17T09:28:47.636Z,40.97
2023-03-17T09:31:15.644Z,41.49
2023-03-17T09:33:43.197Z,40.35
2023-03-17T09:36:12.109Z,40.88
2023-03-17T09:38:40.020Z,40.30
2023-03-17T09:41:31.063Z,40.21
2023-03-17T09:44:29.073Z,39.82
2023-03-17T09:47:18.260Z,39.53
2023-03-17T09:50:00.313Z,39.47
2023-03-17T09:52:34.673Z,40.35
2023-03-17T09:55:08.553Z,40.84
2023-03-17T09:57:38.620Z,42.23
2023-03-17T10:00:18.026Z,41.85
2023-03-17T10:02:46.311Z,42.51
2023-03-17T10:05:30.430Z,42.96
2023-03-17T10:08:30.072Z,41.33
2023-03-17T10:11:28.027Z,41.10
2023-03-17T10:14:17.197Z,40.96
2023-03-17T10:17:06.191Z,40.80
2023-03-17T10:19:42.684Z,41.07
2023-03-17T10:22:58.226Z,43.12
2023-03-17T10:25:32.745Z,40.52
2023-03-17T10:28:14.094Z,41.85
2023-03-17T10:30:41.520Z,42.32
2023-03-17T10:33:09.144Z,41.57
2023-03-17T10:35:39.582Z,42.19
2023-03-17T10:38:23.602Z,42.31
2023-03-17T10:41:00.725Z,40.79
2023-03-17T10:43:45.832Z,40.34
2023-03-17T10:46:22.279Z,40.74
2023-03-17T10:49:08.486Z,40.47
2023-03-17T10:51:40.871Z,41.14
2023-03-17T10:54:14.078Z,42.40
2023-03-17T10:56:43.792Z,41.94
2023-03-17T11:02:19.218Z,41.08
2023-03-17T11:04:47.367Z,41.95
2023-03-17T11:07:18.944Z,41.52
2023-03-17T11:09:51.653Z,41.35
2023-03-17T11:12:40.217Z,39.42
2023-03-17T11:15:17.912Z,40.89
2023-03-17T11:18:13.480Z,40.20
2023-03-17T11:21:02.881Z,40.84
2023-03-17T11:24:05.931Z,40.27
2023-03-17T11:26:51.024Z,40.09
2023-03-17T11:29:42.443Z,40.33
2023-03-17T11:32:37.107Z,40.23
2023-03-17T11:35:34.796Z,41.58
2023-03-17T11:38:25.048Z,42.58
2023-03-17T11:41:08.988Z,43.20
2023-03-17T11:43:42.231Z,41.51
2023-03-17T11:46:43.046Z,42.75
2023-03-17T11:49:44.853Z,41.29
2023-03-17T11:52:43.188Z,41.26
2023-03-17T11:55:42.322Z,42.42
2023-03-17T11:58:27.355Z,43.35
2023-03-17T12:01:01.233Z,40.78
2023-03-17T12:03:51.956Z,40.53
2023-03-17T12:06:30.512Z,41.38
2023-03-17T12:09:30.856Z,42.38
2023-03-17T12:11:59.139Z,40.03
2023-03-17T12:14:39.520Z,39.71
2023-03-17T12:17:12.775Z,38.65
2023-03-17T12:20:26.344Z,39.86
2023-03-17T12:23:33.403Z,40.35
2023-03-17T12:26:11.284Z,40.30
2023-03-17T12:28:52.946Z,40.18
2023-03-17T12:31:30.118Z,40.49
2023-03-17T12:34:17.542Z,41.79
2023-03-17T12:36:45.298Z,41.55
2023-03-17T12:39:34.339Z,40.37
2023-03-17T12:42:38.131Z,41.44
2023-03-17T12:45:35.374Z,40.87
2023-03-17T12:48:11.228Z,40.86
2023-03-17T12:51:06.054Z,40.57
2023-03-17T12:53:46.178Z,40.33
2023-03-17T12:56:29.132Z,39.90
2023-03-17T12:59:09.546Z,41.19
2023-03-17T13:01:46.776Z,41.50
2023-03-17T13:04:33.037Z,40.67
2023-03-17T13:07:12.856Z,40.94
2023-03-17T13:09:53.436Z,41.08
2023-03-17T13:12:57.913Z,41.16
2023-03-17T13:15:57.993Z,41.50
2023-03-17T13:18:48.860Z,40.90
2023-03-17T13:21:20.538Z,41.72
2023-03-17T13:23:57.085Z,41.56
2023-03-17T13:27:01.638Z,40.40
2023-03-17T13:29:44.392Z,41.00
2023-03-17T13:32:33.102Z,41.50
2023-03-17T13:35:01.239Z,42.77
2023-03-17T13:37:35.856Z,43.65
2023-03-17T13:40:11.062Z,45.09
2023-03-17T13:43:01.563Z,46.54
2023-03-17T13:45:41.575Z,45.97
2023-03-17T13:48:38.690Z,43.74
2023-03-17T13:51:09.076Z,44.79
2023-03-17T13:54:09.779Z,43.33
2023-03-17T13:56:43.798Z,42.33
2023-03-17T13:59:25.269Z,41.42
2023-03-17T14:02:01.659Z,42.45
2023-03-17T14:04:50.583Z,42.32
2023-03-17T14:07:23.281Z,42.33
2023-03-17T14:10:01.451Z,42.31
2023-03-17T14:12:52.651Z,42.40
2023-03-17T14:15:52.206Z,42.27
2023-03-17T14:18:30.793Z,42.79
2023-03-17T14:21:06.168Z,42.27
2023-03-17T14:23:36.624Z,40.94
2023-03-17T14:26:05.154Z,41.47
2023-03-17T14:28:35.096Z,41.93
2023-03-17T14:31:16.535Z,42.26
2023-03-17T14:33:44.129Z,42.95
2023-03-17T14:36:14.904Z,44.50
2023-03-17T14:38:53.248Z,43.64
2023-03-17T14:41:25.991Z,43.49
2023-03-17T14:43:58.442Z,43.79
2023-03-17T14:46:34.054Z,43.24
2023-03-17T14:49:20.474Z,44.34
2023-03-17T14:51:53.624Z,44.16
2023-03-17T14:54:27.020Z,43.63
2023-03-17T14:57:03.334Z,43.19
2023-03-17T14:59:42.876Z,43.97
2023-03-17T15:02:44.263Z,43.87
2023-03-17T15:05:41.107Z,45.13
2023-03-17T15:08:41.225Z,45.35
2023-03-17T15:11:16.941Z,45.76
2023-03-17T15:13:44.599Z,45.54
2023-03-17T15:16:35.449Z,45.14
2023-03-17T15:19:09.016Z,45.65
2023-03-17T15:21:42.668Z,45.86
2023-03-17T15:24:44.645Z,46.34
2023-03-17T15:27:19.652Z,47.27
2023-03-17T15:29:48.321Z,47.10
2023-03-17T15:32:22.526Z,46.46
2023-03-17T15:34:55.103Z,45.97
2023-03-17T15:37:27.425Z,45.82
2023-03-17T15:39:55.856Z,46.11
2023-03-17T15:42:31.665Z,45.96
2023-03-17T15:45:03.706Z,46.70
2023-03-17T15:47:37.099Z,46.67
2023-03-17T15:50:31.174Z,47.13
2023-03-17T15:52:59.209Z,47.17
2023-03-17T15:55:31.387Z,48.35
2023-03-17T15:58:00.366Z,48.00
2023-03-17T16:00:31.660Z,48.45
2023-03-17T16:03:09.262Z,48.43
2023-03-17T16:05:37.304Z,48.81
2023-03-17T16:08:05.573Z,49.32
2023-03-17T16:10:33.918Z,49.24
2023-03-17T16:13:01.493Z,48.55
2023-03-17T16:15:35.826Z,48.80
2023-03-17T16:18:10.798Z,48.61
2023-03-17T16:20:45.390Z,48.00
2023-03-17T16:23:32.484Z,48.22
2023-03-17T16:26:13.793Z,48.67
2023-03-17T16:28:45.738Z,48.75
2023-03-17T16:31:35.163Z,49.14
2023-03-17T16:34:22.583Z,49.01
2023-03-17T16:36:54.211Z,49.04
2023-03-17T16:39:24.636Z,49.31
2023-03-17T16:41:54.612Z,49.66
2023-03-17T16:44:24.170Z,50.06
2023-03-17T16:46:56.538Z,49.92
2023-03-17T16:49:27.563Z,50.17
2023-03-17T16:51:56.247Z,50.30
2023-03-17T16:54:25.809Z,49.68
2023-03-17T16:56:53.770Z,50.04
2023-03-17T16:59:24.524Z,49.79
2023-03-17T17:01:55.177Z,49.81
2023-03-17T17:04:30.790Z,49.61
2023-03-17T17:07:18.385Z,49.42
2023-03-17T17:09:46.189Z,49.48
2023-03-17T17:12:13.757Z,49.72
2023-03-17T17:14:41.586Z,49.36
2023-03-17T17:17:11.647Z,49.50
2023-03-17T17:19:55.518Z,49.12
2023-03-17T17:22:45.526Z,48.71
2023-03-17T17:25:13.918Z,49.78
2023-03-17T17:27:43.947Z,50.41
2023-03-17T17:30:17.609Z,51.07
2023-03-17T17:32:50.322Z,50.92
2023-03-17T17:35:19.423Z,51.11
2023-03-17T17:37:47.298Z,51.18
2023-03-17T17:40:19.207Z,51.42
2023-03-17T17:42:48.695Z,51.43
2023-03-17T17:45:17.085Z,51.43
2023-03-17T17:47:44.928Z,51.90
2023-03-17T17:50:42.111Z,51.92
2023-03-17T17:53:12.908Z,52.21
2023-03-17T17:55:44.647Z,52.44
2023-03-17T17:58:25.750Z,52.37
2023-03-17T18:00:57.830Z,53.09
2023-03-17T18:03:27.384Z,52.69
2023-03-17T18:05:56.729Z,52.56
2023-03-17T18:08:25.641Z,52.75
2023-03-17T18:10:53.403Z,52.66
2023-03-17T18:13:22.284Z,53.16
2023-03-17T18:15:50.639Z,53.88
2023-03-17T18:18:18.556Z,53.38
2023-03-17T18:20:46.134Z,53.04
2023-03-17T18:23:13.653Z,53.59
2023-03-17T18:25:41.227Z,53.27
2023-03-17T18:28:08.888Z,52.81
2023-03-17T18:30:38.582Z,53.06
2023-03-17T18:33:10.936Z,53.14
2023-03-17T18:35:39.728Z,52.88
2023-03-17T18:38:08.600Z,53.27
2023-03-17T18:40:38.990Z,53.07
2023-03-17T18:43:08.910Z,53.63
2023-03-17T18:45:37.585Z,53.49
2023-03-17T18:48:06.893Z,53.54
2023-03-17T18:50:34.504Z,53.47
2023-03-17T18:53:02.503Z,54.36
2023-03-17T18:55:30.025Z,53.50
2023-03-17T18:57:58.215Z,53.69
2023-03-17T19:00:26.997Z,53.56
2023-03-17T19:02:54.719Z,53.45
2023-03-17T19:05:22.549Z,53.95
2023-03-17T19:07:51.300Z,53.72
2023-03-17T19:10:19.552Z,53.33
2023-03-17T19:12:48.631Z,53.72
2023-03-17T19:15:17.188Z,51.36
2023-03-17T19:17:44.644Z,50.45
2023-03-17T19:20:13.220Z,51.71
2023-03-17T19:22:41.710Z,53.26
2023-03-17T19:25:12.066Z,54.94
2023-03-17T19:27:41.888Z,56.42
2023-03-17T19:30:13.282Z,55.55
2023-03-17T19:32:41.082Z,55.92
2023-03-17T19:35:13.541Z,57.04
2023-03-17T19:37:43.125Z,57.30
2023-03-17T19:40:13.396Z,58.35
2023-03-17T19:42:41.691Z,59.10
2023-03-17T19:45:11.121Z,59.81
2023-03-17T19:48:04.210Z,60.84
2023-03-17T19:50:33.934Z,60.06
2023-03-17T19:53:03.575Z,60.39
2023-03-17T19:55:32.935Z,60.89
2023-03-17T19:58:21.770Z,60.42
2023-03-17T20:00:54.084Z,59.60
2023-03-17T20:03:26.081Z,61.42
2023-03-17T20:05:57.358Z,61.80
2023-03-17T20:08:28.077Z,62.97
2023-03-17T20:10:55.770Z,59.90
2023-03-17T20:13:30.129Z,60.40
2023-03-17T20:16:01.837Z,60.50
2023-03-17T20:18:31.487Z,59.56
2023-03-17T20:21:00.545Z,58.90
2023-03-17T20:23:32.687Z,60.15
2023-03-17T20:26:02.934Z,60.46
2023-03-17T20:28:30.538Z,60.85
2023-03-17T20:31:05.316Z,62.71
2023-03-17T20:33:35.330Z,64.46
2023-03-17T20:36:07.696Z,64.62
2023-03-17T20:38:38.947Z,65.64
2023-03-17T20:41:17.297Z,65.29
2023-03-17T20:43:49.303Z,64.96
2023-03-17T20:46:22.747Z,65.39
2023-03-17T20:48:58.850Z,65.75
2023-03-17T20:51:28.825Z,63.97
2023-03-17T20:54:00.991Z,63.40
2023-03-17T20:56:30.872Z,63.17
2023-03-17T20:59:03.606Z,62.92
2023-03-17T21:01:36.926Z,63.38
2023-03-17T21:04:08.963Z,63.13
2023-03-17T21:06:39.367Z,62.81
2023-03-17T21:09:10.042Z,64.51
2023-03-17T21:12:00.301Z,64.76
2023-03-17T21:14:33.442Z,65.04
2023-03-17T21:17:03.066Z,65.48
2023-03-17T21:19:30.540Z,65.77
2023-03-17T21:21:58.750Z,64.75
2023-03-17T21:24:33.000Z,65.85
2023-03-17T21:27:05.386Z,65.91
2023-03-17T21:29:34.757Z,65.62
2023-03-17T21:32:04.368Z,66.07
2023-03-17T21:34:37.801Z,65.45
2023-03-17T21:37:06.235Z,65.65
2023-03-17T21:39:36.254Z,65.79
2023-03-17T21:42:05.336Z,66.89
2023-03-17T21:44:33.395Z,68.03
2023-03-17T21:47:03.059Z,68.40
2023-03-17T21:49:30.911Z,68.77
2023-03-17T21:51:58.502Z,68.81
2023-03-17T21:54:26.028Z,68.82
2023-03-17T21:56:53.497Z,69.49
2023-03-17T21:59:20.989Z,69.39
2023-03-17T22:01:53.090Z,70.08
2023-03-17T22:04:20.763Z,70.51
2023-03-17T22:06:48.287Z,69.95
2023-03-17T22:09:18.158Z,70.55
2023-03-17T22:11:46.623Z,69.21
2023-03-17T22:14:17.390Z,67.92
2023-03-17T22:16:44.860Z,67.93
2023-03-17T22:19:12.424Z,68.45
2023-03-17T22:21:39.962Z,68.01
2023-03-17T22:24:07.802Z,67.48
2023-03-17T22:26:35.389Z,67.45
2023-03-17T22:29:02.984Z,68.61
2023-03-17T22:31:30.969Z,65.85
2023-03-17T22:34:01.128Z,66.71
2023-03-17T22:36:30.037Z,67.36
2023-03-17T22:38:58.484Z,65.70
2023-03-17T22:41:29.147Z,66.19
2023-03-17T22:43:57.502Z,67.60
2023-03-17T22:46:26.089Z,67.92
2023-03-17T22:48:54.174Z,66.24
2023-03-17T22:51:24.853Z,66.41
2023-03-17T22:53:53.045Z,64.46
2023-03-17T22:56:21.140Z,65.79
2023-03-17T22:58:49.087Z,66.45
2023-03-17T23:01:18.169Z,66.80
2023-03-17T23:03:47.062Z,65.80
2023-03-17T23:06:16.185Z,66.32
2023-03-17T23:08:45.886Z,66.28
2023-03-17T23:11:24.085Z,66.10
2023-03-17T23:13:53.032Z,66.25
2023-03-17T23:16:21.647Z,66.35
2023-03-17T23:18:49.385Z,65.42
2023-03-17T23:21:27.692Z,65.22
2023-03-17T23:23:55.614Z,66.17
2023-03-17T23:26:24.007Z,66.60
2023-03-17T23:28:52.072Z,66.32
2023-03-17T23:31:22.521Z,66.46
2023-03-17T23:33:51.330Z,66.95
2023-03-17T23:36:19.485Z,67.56
2023-03-17T23:38:47.100Z,66.89
2023-03-17T23:41:18.500Z,66.57
2023-03-17T23:43:46.829Z,65.14
2023-03-17T23:46:14.727Z,63.91
2023-03-17T23:48:42.960Z,64.62
2023-03-17T23:51:12.474Z,64.37
2023-03-17T23:53:41.692Z,65.42
2023-03-17T23:56:11.405Z,64.98
2023-03-17T23:58:41.025Z,65.91
